Weather at Lapraka Heliport

Public forecast

Using degrees Celsius for public forecast. Weather courtesy of forecast.io.

Closest aviation weather report (METAR) to Lapraka Heliport

Closest report is Tirana International Airport Mother Teresa, 6.1 nm (11.2 km) NNW.

2024/06/13 11:20 (retrieved 11 minutes ago)

LATI 131120Z 22010KT 180V260 9999 SCT090 31/16 Q1013 NOSIG

Closest aviation forecast (TAF) to Lapraka Heliport

Closest forecast is Tirana International Airport Mother Teresa, 6.1 nm (11.2 km) NNW.

2024/06/13 06:06 (retrieved 5 hours ago)

TAF LATI 130500Z 1306/1406 VRB05KT CAVOK TX32/1312Z TN20/1404Z TEMPO 1310/1317 25012KT BKN080 PROB40 TEMPO 1401/1406 34014KT 4000 TSRA SCT020CB BKN040